createdAt,value
2017-12-11T00:04:42.729Z,1.67
2017-12-11T01:08:44.609Z,1.23
2017-12-11T01:11:12.680Z,1.20
2017-12-11T01:13:40.753Z,1.25
2017-12-11T01:18:36.488Z,1.12
2017-12-11T01:21:04.534Z,1.30
2017-12-11T01:23:33.452Z,1.50
2017-12-11T01:26:01.512Z,1.33
2017-12-11T01:28:29.557Z,1.33
2017-12-11T01:30:58.381Z,2.10
2017-12-11T01:33:26.441Z,1.50
2017-12-11T01:35:54.528Z,1.83
2017-12-11T01:38:22.597Z,1.75
2017-12-11T01:40:50.637Z,1.25
2017-12-11T01:43:19.561Z,1.12
2017-12-11T01:45:47.633Z,1.45
2017-12-11T01:48:15.696Z,1.58
2017-12-11T01:50:43.768Z,1.12
2017-12-11T01:53:11.829Z,2.55
2017-12-11T01:55:39.873Z,1.60
2017-12-11T01:58:07.937Z,1.40
2017-12-11T02:00:35.977Z,1.42
2017-12-11T02:03:04.032Z,1.58
2017-12-11T02:05:32.084Z,0.98
2017-12-11T02:08:00.180Z,1.27
2017-12-11T02:10:28.248Z,1.87
2017-12-11T02:12:56.321Z,1.62
2017-12-11T02:15:24.365Z,1.80
2017-12-11T02:17:53.180Z,1.70
2017-12-11T02:20:21.244Z,1.37
2017-12-11T02:22:49.284Z,1.00
2017-12-11T02:25:18.088Z,0.93
2017-12-11T03:29:20.554Z,1.50
2017-12-11T03:31:48.676Z,1.48
2017-12-11T03:34:17.869Z,1.30
2017-12-11T03:36:45.926Z,1.20
2017-12-11T03:39:14.762Z,1.05
2017-12-11T03:41:42.822Z,1.90
2017-12-11T03:44:11.051Z,1.80
2017-12-11T03:46:39.070Z,1.90
2017-12-11T04:48:10.638Z,1.73
2017-12-11T04:50:38.790Z,1.73
2017-12-11T04:53:06.966Z,1.95
2017-12-11T04:55:35.038Z,1.37
2017-12-11T04:58:03.102Z,1.70
2017-12-11T05:00:31.166Z,2.00
2017-12-11T05:02:59.204Z,2.53
2017-12-11T05:05:27.273Z,1.83
2017-12-11T05:07:55.328Z,1.73
2017-12-11T05:10:23.369Z,1.33
2017-12-11T05:12:51.850Z,1.60
2017-12-11T05:15:19.891Z,1.58
2017-12-11T05:17:48.697Z,1.50
2017-12-11T05:20:16.777Z,2.45
2017-12-11T05:22:44.961Z,2.95
2017-12-11T05:25:13.117Z,3.85
2017-12-11T05:27:41.562Z,5.35
2017-12-11T20:04:26.261Z,1.00
2017-12-11T20:06:54.405Z,0.70
2017-12-11T20:09:22.445Z,0.70
2017-12-11T20:11:50.894Z,0.80
2017-12-11T20:14:20.372Z,0.70
2017-12-11T20:16:48.836Z,1.33
2017-12-11T20:19:17.729Z,0.80
2017-12-11T20:31:39.478Z,1.08
2017-12-11T20:36:35.433Z,0.70
2017-12-11T20:39:03.869Z,0.55
2017-12-11T20:41:31.933Z,0.60
2017-12-11T20:44:00.086Z,0.80
2017-12-11T20:46:28.174Z,0.60
2017-12-11T20:48:56.214Z,0.60
2017-12-11T20:51:25.065Z,0.90
2017-12-11T20:53:53.126Z,0.80
2017-12-11T20:56:21.185Z,0.77
2017-12-11T20:58:49.273Z,0.70
2017-12-11T21:01:17.318Z,1.00
2017-12-11T21:03:45.382Z,0.70
2017-12-11T21:06:14.566Z,0.60
2017-12-11T21:08:42.638Z,0.80
2017-12-11T21:11:10.717Z,0.60
2017-12-11T21:13:38.767Z,0.93
2017-12-11T21:16:07.585Z,0.60
2017-12-11T21:18:36.413Z,3.05
2017-12-11T21:21:04.953Z,2.70
2017-12-11T21:23:33.003Z,0.80
2017-12-11T21:26:01.093Z,0.73
2017-12-11T21:28:29.269Z,0.80
2017-12-11T21:30:58.079Z,1.50
2017-12-11T21:33:26.525Z,0.88
2017-12-11T21:35:54.977Z,1.17
2017-12-11T21:38:23.806Z,1.20
2017-12-11T21:40:52.291Z,1.05
2017-12-11T21:43:20.743Z,0.80
2017-12-11T21:45:49.210Z,1.20
2017-12-11T21:48:17.281Z,0.90
2017-12-11T21:50:45.329Z,0.90
2017-12-11T21:53:13.394Z,0.80
2017-12-11T21:55:41.653Z,0.90
2017-12-11T21:58:09.713Z,0.82
2017-12-11T22:00:37.753Z,0.70
2017-12-11T22:03:06.676Z,1.65
2017-12-11T22:05:34.759Z,1.25
2017-12-11T22:08:02.805Z,0.90
2017-12-11T22:10:30.854Z,0.70
2017-12-11T22:12:58.974Z,1.15
2017-12-11T22:15:27.042Z,0.65
2017-12-11T22:17:55.105Z,0.60
2017-12-11T22:20:23.162Z,0.68
2017-12-11T22:22:51.258Z,0.50
2017-12-11T22:25:19.321Z,0.50
2017-12-11T22:30:15.782Z,0.70
2017-12-11T22:32:44.670Z,0.80
2017-12-11T22:35:12.746Z,0.62
2017-12-11T22:37:40.814Z,1.10
2017-12-11T22:40:08.881Z,0.85
2017-12-11T22:42:36.956Z,0.80
2017-12-11T22:45:05.013Z,0.70
2017-12-11T22:57:23.316Z,1.08
2017-12-11T22:59:52.239Z,0.60
2017-12-11T23:02:20.297Z,0.65
2017-12-11T23:04:48.369Z,0.70
2017-12-11T23:07:16.451Z,0.82
2017-12-11T23:09:44.511Z,0.80
2017-12-11T23:12:12.590Z,0.80
2017-12-11T23:14:40.680Z,0.57
2017-12-11T23:17:09.248Z,0.60
2017-12-11T23:19:37.322Z,0.70
2017-12-11T23:22:05.500Z,0.50
2017-12-11T23:24:33.987Z,0.63
2017-12-11T23:34:25.551Z,0.80
2017-12-11T23:36:53.622Z,0.85
2017-12-11T23:39:21.835Z,1.00
